Airfield :







YOU CAN JOIN US ON...

 
LOGIN :

Register | Disclaimer

   EN    FR    IT 

 









Legend :    VFR   Marginal VFR   IFR   Intensive IFR   Very Intensive IFR
Visi :
Ceiling :
>= 8 km
>= 3000ft
5 to 8 km
1000 to 3000 ft
1500m to 5 km
500 to 1000 ft
800 to 1500m
200 to 500 ft
< 800m
< 200 ft
Symbols :   Thunderstorms  Fog  Heavy snow  Heavy precipitations  Wind > 20 kt






- Airport Elevation : 1166 ft


KMPV - Edward F Knapp State

CURRENT METAR :
  • 291914Z AUTO 00000KT 4SM RA BR BKN013 OVC019 04/02 A2985 RMK AO2 P0003 T00440022

EXPIRED METARs :
  • 291851Z AUTO 00000KT 5SM -RA BR SCT014 BKN018 OVC025 05/03 A2985 RMK AO2 SLP119 P0005 T00500033
  • 291818Z AUTO 00000KT 4SM -RA BR FEW021 OVC028 05/04 A2986 RMK AO2 P0002 T00500039
  • 291751Z AUTO 00000KT 8SM -RA BKN034 OVC046 04/04 A2985 RMK AO2 SLP117 P0001 60001 T00440039 10050 20011 58021
  • 291651Z AUTO 00000KT 10SM -RA BKN044 OVC060 04/03 A2987 RMK AO2 RAB32 SLP125 P0000 T00440028

TAF KMPV
Valid from the 29 at 18:00 until the 30 at 18:00 UTC


291736Z 2918/3018 VRB03KT P6SM -RA OVC035
TEMPO 2918/2921 4SM -RA OVC025
FM292100 02004KT 5SM -RA BR OVC020
TEMPO 2921/3001 3SM -RA BR OVC009
FM300100 VRB04KT 1 1/2SM -SNRA BR OVC010
FM300400 01007KT P6SM VCSH OVC015
FM300600 36010KT P6SM VCSH OVC020
FM301200 36008KT P6SM BKN035
KZBW FIR / North America



MET'MAP, your aeronautical weather chart ! - Copyright ORBIFLY December 2007 - Disclaimer

ORBIFLY MET'MAP TEAM :

Programming & Development : Alexandra Zaïnal
Concept & original design : Baudouin d'Aumeries
Assistance for programming : Marc-Olivier Méhu
Technical & hardware support : Manuel Goepfert

Contact : metmap@orbifly.com




SOURCES & CREDITS :

   NOAA